Time;durP1;ratioP1;P1;durP2;ratioP2;P2;SDS_P1;SDS_P2;PMS_P1;PMS_P2;Temp;Humidity;BMP_temperature;BMP_pressure;BME280_temperature;BME280_humidity;BME280_pressure;Samples;Min_cycle;Max_cycle;Signal;HPM_P1;HPM_P2
2022/07/10 00:00:38;;;;;;;24.47;5.10;;;19.60;24.90;;;;;;5047500;28;20473;-72
2022/07/10 00:03:07;;;;;;;23.97;4.87;;;19.60;25.20;;;;;;5059279;28;20845;-71
2022/07/10 00:05:35;;;;;;;25.87;5.67;;;19.50;25.30;;;;;;5054868;28;20493;-72
2022/07/10 00:08:02;;;;;;;25.70;5.43;;;19.50;25.70;;;;;;5045271;28;21030;-72
2022/07/10 00:10:29;;;;;;;24.90;5.30;;;19.40;26.00;;;;;;5052065;28;20458;-71
2022/07/10 00:12:57;;;;;;;26.10;6.13;;;19.30;25.90;;;;;;5057432;28;20659;-71
2022/07/10 00:15:24;;;;;;;26.23;4.93;;;19.40;26.10;;;;;;5056075;28;20893;-71
2022/07/10 00:17:51;;;;;;;25.70;5.60;;;19.30;25.80;;;;;;5058150;28;20485;-72
2022/07/10 00:20:19;;;;;;;23.47;4.93;;;19.30;26.00;;;;;;5046351;28;20473;-71
2022/07/10 00:22:46;;;;;;;24.03;5.23;;;19.30;26.00;;;;;;5057807;28;20962;-71
2022/07/10 00:25:14;;;;;;;25.10;5.70;;;19.30;26.30;;;;;;5058888;28;20466;-71
2022/07/10 00:27:41;;;;;;;25.93;5.50;;;19.20;26.20;;;;;;5059001;28;20508;-71
2022/07/10 00:30:10;;;;;;;24.60;5.27;;;19.30;26.30;;;;;;5055501;28;20478;-72
2022/07/10 00:32:37;;;;;;;24.30;5.60;;;19.20;26.30;;;;;;5056149;28;20465;-72
2022/07/10 00:35:04;;;;;;;23.53;5.60;;;19.20;27.20;;;;;;5057155;28;20501;-70
2022/07/10 00:37:33;;;;;;;27.00;5.80;;;19.10;27.90;;;;;;5058084;28;20667;-72
2022/07/10 00:40:00;;;;;;;24.50;5.80;;;19.10;28.10;;;;;;5053701;28;20467;-71
2022/07/10 00:42:27;;;;;;;24.93;6.07;;;19.10;28.40;;;;;;5051287;28;20708;-70
2022/07/10 00:44:54;;;;;;;24.87;5.83;;;19.10;28.50;;;;;;5056564;28;20989;-71
2022/07/10 00:47:20;;;;;;;26.70;5.87;;;19.00;28.60;;;;;;5056293;28;20485;-72
2022/07/10 00:49:48;;;;;;;25.53;5.17;;;19.00;28.80;;;;;;5058006;28;20464;-71
2022/07/10 00:52:17;;;;;;;24.73;5.20;;;18.90;28.70;;;;;;5055303;28;20849;-71
2022/07/10 00:54:46;;;;;;;24.90;5.53;;;18.90;28.60;;;;;;5057527;28;20465;-72
2022/07/10 00:57:15;;;;;;;24.67;5.70;;;18.90;29.10;;;;;;5053565;28;20544;-71
2022/07/10 00:59:42;;;;;;;24.97;5.63;;;18.80;29.50;;;;;;5058693;28;20458;-71
2022/07/10 01:02:11;;;;;;;26.03;5.77;;;18.80;29.80;;;;;;5058209;28;20478;-71
2022/07/10 01:04:39;;;;;;;23.60;4.83;;;18.80;30.10;;;;;;5056188;28;20469;-71
2022/07/10 01:07:06;;;;;;;25.23;5.40;;;18.70;30.30;;;;;;5053848;28;20483;-70
2022/07/10 01:09:33;;;;;;;24.20;5.83;;;18.70;30.50;;;;;;5055474;28;20458;-71
2022/07/10 01:12:03;;;;;;;25.93;5.70;;;18.70;30.40;;;;;;5053655;28;20458;-73
2022/07/10 01:14:30;;;;;;;23.90;4.90;;;18.60;30.40;;;;;;5054318;28;20468;-71
2022/07/10 01:16:57;;;;;;;24.70;5.60;;;18.60;30.20;;;;;;5060623;28;20490;-72
2022/07/10 01:19:24;;;;;;;28.43;5.73;;;18.60;29.90;;;;;;5062446;28;20461;-71
2022/07/10 01:21:52;;;;;;;27.50;5.47;;;18.60;29.50;;;;;;5069172;28;20492;-72
2022/07/10 01:24:19;;;;;;;27.80;5.40;;;18.60;29.20;;;;;;5049048;28;20963;-72
2022/07/10 01:26:46;;;;;;;28.10;5.00;;;18.60;29.00;;;;;;5050093;28;20673;-72
2022/07/10 01:29:13;;;;;;;28.83;6.20;;;18.60;28.80;;;;;;5060682;28;20856;-70
2022/07/10 01:31:40;;;;;;;25.53;5.50;;;18.60;29.00;;;;;;5060488;28;20469;-71
2022/07/10 01:34:09;;;;;;;25.40;5.47;;;18.60;29.30;;;;;;5062234;28;20473;-70
2022/07/10 01:36:37;;;;;;;26.70;5.73;;;18.60;29.20;;;;;;5050701;28;20497;-72
2022/07/10 01:39:06;;;;;;;24.50;5.80;;;18.50;29.30;;;;;;5057287;28;20534;-71
2022/07/10 01:41:33;;;;;;;26.90;5.93;;;18.50;30.00;;;;;;5057723;28;20517;-71
2022/07/10 01:44:00;;;;;;;25.30;5.23;;;18.50;29.70;;;;;;5049953;28;20470;-71
2022/07/10 01:46:27;;;;;;;25.10;5.90;;;18.50;30.30;;;;;;5052682;28;20490;-72
2022/07/10 01:48:54;;;;;;;25.27;5.70;;;18.40;30.80;;;;;;5035176;28;20470;-71
2022/07/10 01:51:22;;;;;;;27.03;5.53;;;18.40;30.70;;;;;;5068272;28;20549;-72
2022/07/10 01:53:48;;;;;;;24.83;5.67;;;18.40;30.80;;;;;;5056018;28;21142;-71
2022/07/10 01:56:16;;;;;;;26.53;6.00;;;18.40;30.90;;;;;;5068420;28;20767;-71
2022/07/10 01:58:44;;;;;;;27.80;6.20;;;18.30;30.80;;;;;;5049286;28;20477;-72
2022/07/10 02:01:11;;;;;;;26.50;6.40;;;18.30;31.00;;;;;;5039568;28;20486;-71
2022/07/10 02:06:22;;;;;;;27.13;6.47;;;18.20;30.50;;;;;;5062948;28;20476;-71
2022/07/10 02:08:49;;;;;;;26.27;5.83;;;18.20;30.30;;;;;;5049940;28;20465;-72
2022/07/10 02:11:17;;;;;;;30.03;6.53;;;18.10;30.10;;;;;;5051177;28;20458;-71
2022/07/10 02:13:44;;;;;;;25.30;5.50;;;18.10;30.20;;;;;;5055916;28;20458;-72
2022/07/10 02:16:11;;;;;;;27.27;6.00;;;18.10;30.30;;;;;;5051968;28;20483;-72
2022/07/10 02:18:38;;;;;;;26.10;6.47;;;18.00;30.10;;;;;;5048804;28;20473;-72
2022/07/10 02:21:05;;;;;;;27.13;6.67;;;18.00;30.10;;;;;;5064791;28;20985;-70
2022/07/10 02:23:32;;;;;;;27.43;6.80;;;17.90;30.20;;;;;;5050689;28;20477;-71
2022/07/10 02:25:59;;;;;;;27.37;6.17;;;17.90;30.60;;;;;;5059204;28;20477;-71
2022/07/10 02:28:27;;;;;;;25.63;5.50;;;17.80;30.40;;;;;;5054460;28;20465;-72
2022/07/10 02:30:54;;;;;;;26.23;6.50;;;17.70;30.60;;;;;;5061855;28;20473;-71
2022/07/10 02:33:21;;;;;;;26.63;6.57;;;17.70;30.40;;;;;;5052251;28;20492;-72
2022/07/10 02:35:47;;;;;;;26.73;6.43;;;17.70;30.70;;;;;;5053420;28;20484;-71
2022/07/10 02:38:14;;;;;;;27.33;6.70;;;17.60;30.60;;;;;;5054577;28;20465;-71
2022/07/10 02:40:41;;;;;;;28.17;6.47;;;17.60;31.30;;;;;;5066251;28;20928;-71
2022/07/10 02:43:08;;;;;;;27.03;6.87;;;17.50;30.80;;;;;;5057204;28;20897;-70
2022/07/10 02:45:36;;;;;;;27.57;6.57;;;17.50;30.70;;;;;;5057513;28;20480;-70
2022/07/10 02:48:04;;;;;;;29.33;6.60;;;17.50;30.80;;;;;;5067724;28;20764;-70
2022/07/10 02:50:31;;;;;;;26.73;6.67;;;17.40;31.20;;;;;;5056626;28;20530;-71
2022/07/10 02:52:57;;;;;;;26.00;6.47;;;17.30;31.10;;;;;;5045772;28;20544;-71
2022/07/10 02:55:24;;;;;;;28.00;6.90;;;17.30;31.30;;;;;;5053232;28;20457;-70
2022/07/10 02:57:51;;;;;;;29.03;6.73;;;17.20;31.20;;;;;;5053996;28;21190;-71
2022/07/10 03:00:18;;;;;;;27.00;6.70;;;17.20;31.20;;;;;;5067144;28;20471;-71
2022/07/10 03:02:46;;;;;;;26.50;6.27;;;17.10;31.20;;;;;;5052510;28;20788;-71
2022/07/10 03:05:13;;;;;;;26.60;6.90;;;17.10;31.50;;;;;;5048301;28;20520;-71
2022/07/10 03:07:40;;;;;;;27.43;7.00;;;17.10;31.30;;;;;;5055536;28;20493;-71
2022/07/10 03:10:07;;;;;;;26.53;6.43;;;17.00;31.20;;;;;;5064749;28;20472;-71
2022/07/10 03:12:34;;;;;;;26.80;6.53;;;17.00;31.40;;;;;;5063025;28;21002;-70
2022/07/10 03:15:01;;;;;;;26.87;6.20;;;16.90;31.50;;;;;;5046194;28;20468;-71
2022/07/10 03:17:28;;;;;;;28.23;6.60;;;16.90;31.60;;;;;;5063996;28;20480;-71
2022/07/10 03:19:56;;;;;;;27.10;6.80;;;16.80;31.50;;;;;;5048838;28;20745;-71
2022/07/10 03:22:23;;;;;;;27.40;7.40;;;16.70;31.80;;;;;;5041780;28;20573;-73
2022/07/10 03:24:49;;;;;;;28.40;7.57;;;16.70;32.60;;;;;;5052249;28;20473;-71
2022/07/10 03:27:16;;;;;;;27.20;6.93;;;16.70;32.00;;;;;;5038736;28;20482;-72
2022/07/10 03:29:43;;;;;;;27.97;6.93;;;16.70;32.10;;;;;;5056684;28;20827;-72
2022/07/10 03:32:10;;;;;;;28.73;7.03;;;16.70;32.10;;;;;;5066469;28;20861;-72
2022/07/10 03:34:37;;;;;;;28.00;6.80;;;16.60;32.10;;;;;;5057136;28;20466;-72
2022/07/10 03:37:05;;;;;;;28.17;7.30;;;16.60;32.10;;;;;;5044459;28;20519;-74
2022/07/10 03:39:32;;;;;;;27.83;7.03;;;16.60;32.30;;;;;;5052351;28;20788;-74
2022/07/10 03:41:59;;;;;;;28.40;6.87;;;16.50;32.40;;;;;;5065246;28;20993;-72
2022/07/10 03:44:25;;;;;;;28.90;7.53;;;16.50;32.60;;;;;;5058659;28;20972;-72
2022/07/10 03:46:52;;;;;;;28.00;7.53;;;16.50;32.30;;;;;;5051352;28;20478;-72
2022/07/10 03:49:19;;;;;;;28.70;8.30;;;16.50;32.30;;;;;;5049079;28;20462;-71
2022/07/10 03:51:46;;;;;;;29.40;7.33;;;16.50;32.50;;;;;;5045204;28;20846;-72
2022/07/10 03:54:14;;;;;;;28.80;8.37;;;16.40;32.60;;;;;;5062755;28;20726;-72
2022/07/10 03:59:25;;;;;;;29.17;7.63;;;16.40;32.80;;;;;;5044057;28;20437;-72
2022/07/10 04:01:52;;;;;;;28.70;8.17;;;16.40;32.80;;;;;;5053868;28;20487;-72
2022/07/10 04:04:19;;;;;;;28.50;7.17;;;16.40;33.10;;;;;;5053294;28;20540;-72
2022/07/10 04:06:45;;;;;;;29.27;8.87;;;16.30;33.30;;;;;;5060673;28;20529;-73
2022/07/10 04:09:13;;;;;;;29.00;8.67;;;16.40;33.60;;;;;;5050691;28;20584;-71
2022/07/10 04:11:40;;;;;;;31.50;8.73;;;16.40;33.60;;;;;;5045752;28;20465;-71
2022/07/10 04:14:07;;;;;;;29.47;9.77;;;16.40;33.60;;;;;;5050348;28;20541;-71
2022/07/10 04:16:34;;;;;;;29.10;9.53;;;16.40;33.40;;;;;;5046955;28;20492;-72
2022/07/10 04:19:00;;;;;;;28.23;9.40;;;16.50;33.60;;;;;;5047398;28;20465;-73
2022/07/10 04:21:27;;;;;;;32.10;9.50;;;16.50;33.80;;;;;;5064142;28;20449;-72
2022/07/10 04:23:54;;;;;;;29.83;9.63;;;16.60;34.50;;;;;;5066009;28;20580;-72
2022/07/10 04:26:22;;;;;;;31.50;9.27;;;16.70;34.20;;;;;;5061944;28;20633;-72
2022/07/10 04:28:49;;;;;;;30.00;9.50;;;16.80;34.40;;;;;;5052574;28;20469;-72
2022/07/10 04:31:16;;;;;;;31.23;9.50;;;16.90;34.20;;;;;;5057945;28;20473;-71
2022/07/10 04:33:43;;;;;;;29.00;9.00;;;16.90;34.20;;;;;;5058868;28;20454;-72
2022/07/10 04:36:09;;;;;;;31.10;8.60;;;17.00;34.30;;;;;;5070509;28;20480;-72
2022/07/10 04:38:36;;;;;;;30.10;9.10;;;17.10;34.30;;;;;;5054968;28;20464;-72
2022/07/10 04:41:03;;;;;;;30.17;9.67;;;17.30;34.60;;;;;;5060515;28;20457;-72
2022/07/10 04:43:32;;;;;;;30.93;9.87;;;17.40;34.00;;;;;;5056160;28;20575;-72
2022/07/10 04:45:59;;;;;;;29.70;8.17;;;17.40;33.70;;;;;;5052237;28;20458;-73
2022/07/10 04:48:26;;;;;;;29.37;7.90;;;17.50;33.70;;;;;;5053383;28;20484;-72
2022/07/10 04:50:53;;;;;;;31.40;7.83;;;17.80;33.50;;;;;;5054837;28;20544;-71
2022/07/10 04:53:20;;;;;;;32.17;8.67;;;18.10;32.10;;;;;;5067580;28;20467;-72
2022/07/10 04:55:47;;;;;;;30.27;8.50;;;18.20;31.10;;;;;;5047790;28;20959;-71
2022/07/10 04:58:13;;;;;;;30.00;8.40;;;18.20;30.80;;;;;;5064287;28;20549;-71
2022/07/10 05:00:41;;;;;;;33.53;8.37;;;18.30;31.50;;;;;;5050578;28;20477;-72
2022/07/10 05:03:08;;;;;;;31.00;8.40;;;18.80;31.60;;;;;;5068181;28;20485;-72
2022/07/10 05:05:35;;;;;;;33.20;7.80;;;20.20;29.20;;;;;;5073283;28;20544;-72
2022/07/10 05:08:02;;;;;;;31.30;6.90;;;21.60;24.40;;;;;;5052454;28;20477;-72
2022/07/10 05:10:29;;;;;;;32.00;6.90;;;22.80;20.80;;;;;;5050613;28;20461;-72
2022/07/10 05:12:56;;;;;;;31.10;6.83;;;24.10;18.40;;;;;;5063054;28;20942;-73
2022/07/10 05:15:23;;;;;;;30.03;6.60;;;25.00;15.50;;;;;;5052851;28;20454;-72
2022/07/10 05:17:51;;;;;;;30.07;5.80;;;25.90;13.50;;;;;;5059917;28;20485;-72
2022/07/10 05:20:18;;;;;;;29.60;6.50;;;26.80;12.50;;;;;;5051973;28;20469;-72
2022/07/10 05:22:45;;;;;;;30.30;6.10;;;27.50;11.00;;;;;;5058103;28;20453;-72
2022/07/10 05:25:12;;;;;;;29.40;5.30;;;28.20;9.60;;;;;;5058840;28;20465;-72
2022/07/10 05:27:39;;;;;;;32.30;6.03;;;29.00;8.50;;;;;;5053456;28;20481;-72
2022/07/10 05:30:06;;;;;;;29.20;5.80;;;29.60;7.40;;;;;;5056023;28;20470;-72
2022/07/10 05:32:33;;;;;;;28.70;5.80;;;29.90;5.70;;;;;;5047538;28;20469;-72
2022/07/10 05:35:01;;;;;;;29.60;6.40;;;30.00;5.80;;;;;;5061824;28;20476;-73
2022/07/10 05:37:28;;;;;;;28.07;5.33;;;30.40;5.10;;;;;;5051112;28;20493;-73
2022/07/10 05:39:55;;;;;;;30.10;6.33;;;30.80;4.60;;;;;;5046181;28;20466;-73
2022/07/10 05:42:21;;;;;;;30.37;5.20;;;30.90;4.10;;;;;;5047791;28;20946;-72
2022/07/10 05:44:48;;;;;;;28.37;4.70;;;31.20;3.70;;;;;;5053680;28;20512;-72
2022/07/10 05:47:15;;;;;;;29.00;5.67;;;31.20;3.90;;;;;;5055097;28;20852;-73
2022/07/10 05:49:42;;;;;;;30.67;5.07;;;32.10;2.30;;;;;;5067382;28;20457;-72
2022/07/10 05:52:10;;;;;;;27.63;4.97;;;32.90;1.10;;;;;;5050705;28;20462;-72
2022/07/10 05:54:37;;;;;;;29.93;5.00;;;33.30;1.00;;;;;;5058878;28;20453;-73
2022/07/10 05:57:04;;;;;;;27.67;5.03;;;34.00;1.00;;;;;;5057976;28;20673;-73
2022/07/10 05:59:34;;;;;;;36.93;6.07;;;34.80;1.00;;;;;;5061939;28;20465;-72
2022/07/10 06:02:00;;;;;;;26.07;4.50;;;35.80;1.00;;;;;;5054854;28;20469;-73
2022/07/10 06:04:27;;;;;;;26.20;4.73;;;35.80;1.00;;;;;;5045702;28;20830;-72
2022/07/10 06:06:54;;;;;;;27.23;4.43;;;34.30;1.00;;;;;;5065302;28;20489;-72
2022/07/10 06:09:22;;;;;;;28.50;4.03;;;32.60;1.00;;;;;;5064949;28;20461;-72
2022/07/10 06:11:49;;;;;;;31.00;5.33;;;31.20;1.20;;;;;;5068270;28;20472;-72
2022/07/10 06:14:16;;;;;;;29.43;4.30;;;30.00;2.40;;;;;;5049544;28;20465;-72
2022/07/10 06:16:43;;;;;;;28.57;4.40;;;29.20;3.70;;;;;;5053448;28;20485;-72
2022/07/10 06:19:09;;;;;;;29.70;5.07;;;28.50;4.60;;;;;;5062382;28;20469;-72
2022/07/10 06:21:36;;;;;;;27.10;4.43;;;27.90;5.70;;;;;;5054821;28;20465;-72
2022/07/10 06:24:03;;;;;;;28.57;4.70;;;27.70;6.70;;;;;;5052673;28;20482;-72
2022/07/10 06:26:31;;;;;;;28.10;4.67;;;27.40;6.90;;;;;;5059887;28;20481;-72
2022/07/10 06:28:58;;;;;;;28.43;5.90;;;26.90;7.10;;;;;;5067982;28;20536;-73
2022/07/10 06:31:25;;;;;;;30.17;6.80;;;27.60;7.60;;;;;;5066739;28;20598;-72
2022/07/10 06:33:52;;;;;;;28.97;4.70;;;27.90;6.90;;;;;;5043551;28;20469;-73
2022/07/10 06:36:18;;;;;;;27.53;3.90;;;28.00;6.70;;;;;;5047270;28;20853;-72
2022/07/10 06:38:45;;;;;;;29.43;4.80;;;28.10;6.60;;;;;;5056916;28;20461;-72
2022/07/10 06:41:12;;;;;;;27.23;4.23;;;27.80;6.70;;;;;;5049641;28;20472;-67
2022/07/10 06:43:40;;;;;;;27.63;4.40;;;27.80;6.30;;;;;;5046178;28;20699;-66
2022/07/10 06:46:07;;;;;;;28.83;4.53;;;28.30;7.50;;;;;;5046824;28;20505;-66
2022/07/10 06:48:33;;;;;;;27.87;4.03;;;31.10;4.10;;;;;;5061748;28;20462;-65
2022/07/10 06:51:00;;;;;;;26.97;4.00;;;33.40;1.00;;;;;;5052835;28;20837;-64
2022/07/10 06:53:27;;;;;;;26.63;3.73;;;32.70;1.00;;;;;;5038543;28;20208;-66
2022/07/10 06:55:54;;;;;;;28.50;4.10;;;31.40;1.00;;;;;;5043347;28;20459;-75
2022/07/10 06:58:21;;;;;;;27.20;3.97;;;31.90;1.00;;;;;;5055705;28;20458;-74
2022/07/10 07:00:49;;;;;;;26.90;3.50;;;32.50;1.00;;;;;;5052587;28;20469;-74
2022/07/10 07:03:16;;;;;;;27.43;3.73;;;34.30;1.00;;;;;;5044604;28;20457;-75
2022/07/10 07:05:42;;;;;;;26.20;3.17;;;34.90;1.00;;;;;;5045537;28;20994;-75
2022/07/10 07:08:09;;;;;;;27.00;3.17;;;35.60;1.00;;;;;;5056938;28;20479;-75
2022/07/10 07:10:36;;;;;;;26.60;3.50;;;36.20;1.00;;;;;;5049173;28;20540;-73
2022/07/10 07:13:03;;;;;;;29.67;4.73;;;35.10;1.00;;;;;;5049451;28;20497;-74
2022/07/10 07:15:30;;;;;;;28.90;3.70;;;34.10;1.00;;;;;;5048161;28;20458;-74
2022/07/10 07:18:07;;;;;;;28.47;3.83;;;32.90;1.00;;;;;;5046646;28;20572;-73
2022/07/10 07:23:19;;;;;;;27.40;4.03;;;33.70;1.00;;;;;;5050888;28;20452;-73
2022/07/10 07:25:47;;;;;;;26.90;3.73;;;35.20;1.00;;;;;;5050356;28;20458;-74
2022/07/10 07:28:16;;;;;;;26.83;3.60;;;36.50;1.00;;;;;;5049048;28;20465;-74
2022/07/10 07:30:43;;;;;;;25.67;3.50;;;39.20;1.00;;;;;;5055995;28;20469;-73
2022/07/10 07:33:11;;;;;;;24.70;2.77;;;41.80;1.00;;;;;;5051984;28;20889;-73
2022/07/10 07:35:38;;;;;;;24.30;3.03;;;42.00;1.00;;;;;;5052661;28;20462;-74
2022/07/10 07:38:06;;;;;;;25.97;3.00;;;40.80;1.00;;;;;;5046162;28;20943;-75
2022/07/10 07:40:33;;;;;;;24.33;2.70;;;40.40;1.00;;;;;;5052645;28;20466;-73
2022/07/10 07:43:00;;;;;;;23.73;2.70;;;40.40;1.00;;;;;;5046671;28;20462;-73
2022/07/10 07:45:28;;;;;;;24.63;3.00;;;41.60;1.00;;;;;;5055816;28;21116;-74
2022/07/10 07:47:56;;;;;;;25.40;3.13;;;40.10;1.00;;;;;;5050388;28;20485;-74
2022/07/10 07:50:26;;;;;;;26.03;2.73;;;37.80;1.00;;;;;;5050314;28;21232;-75
2022/07/10 07:52:54;;;;;;;24.73;2.90;;;35.80;1.00;;;;;;5041919;28;20562;-75
2022/07/10 07:55:22;;;;;;;28.20;3.40;;;34.00;1.00;;;;;;5057720;28;20461;-75
2022/07/10 07:57:51;;;;;;;25.93;3.13;;;32.60;1.00;;;;;;5046718;28;20482;-74
2022/07/10 08:00:19;;;;;;;26.33;3.00;;;31.60;1.00;;;;;;5054191;28;20456;-75
2022/07/10 08:02:46;;;;;;;26.67;2.90;;;30.80;1.00;;;;;;5052247;28;20547;-76
2022/07/10 08:05:20;;;;;;;28.10;5.30;;;30.60;1.00;;;;;;5283631;22;20491;-70
2022/07/10 08:07:50;;;;;;;27.50;3.63;;;30.50;1.00;;;;;;5063129;28;20454;-72
2022/07/10 08:10:18;;;;;;;27.07;3.27;;;30.50;1.00;;;;;;5067187;28;20457;-72
2022/07/10 08:12:46;;;;;;;27.57;3.87;;;34.20;1.00;;;;;;5067042;28;20463;-72
2022/07/10 08:15:14;;;;;;;25.13;2.83;;;38.10;1.00;;;;;;5070311;28;20530;-71
2022/07/10 08:17:41;;;;;;;25.20;2.50;;;41.40;1.00;;;;;;5070510;28;20471;-72
2022/07/10 08:20:12;;;;;;;25.13;2.63;;;43.70;1.00;;;;;;5064522;28;20462;-72
2022/07/10 08:22:40;;;;;;;24.03;2.13;;;42.00;1.00;;;;;;5061706;28;20470;-70
2022/07/10 08:25:09;;;;;;;25.53;2.87;;;41.60;1.00;;;;;;5068551;28;20721;-70
2022/07/10 08:27:36;;;;;;;26.40;2.50;;;39.90;1.00;;;;;;5069735;28;20468;-71
2022/07/10 08:30:04;;;;;;;26.20;2.40;;;37.50;1.00;;;;;;5073854;28;20488;-71
2022/07/10 08:32:31;;;;;;;26.33;2.37;;;35.60;1.00;;;;;;5075654;28;20468;-71
2022/07/10 08:34:58;;;;;;;26.37;3.00;;;34.00;1.00;;;;;;5067187;28;20561;-71
2022/07/10 08:37:25;;;;;;;25.67;2.40;;;32.60;1.00;;;;;;5070373;28;21046;-71
2022/07/10 08:39:52;;;;;;;26.80;2.70;;;32.90;1.00;;;;;;5062354;28;20468;-71
2022/07/10 08:42:22;;;;;;;24.83;2.23;;;35.80;1.00;;;;;;5067005;28;20974;-70
2022/07/10 08:44:49;;;;;;;26.83;2.87;;;38.90;1.00;;;;;;5069508;28;20480;-71
2022/07/10 08:47:16;;;;;;;24.67;2.40;;;41.40;1.00;;;;;;5068114;28;20457;-70
2022/07/10 08:49:48;;;;;;;23.50;1.83;;;43.70;1.00;;;;;;5071699;28;20488;-71
2022/07/10 08:52:27;;;;;;;23.73;2.07;;;45.70;1.00;;;;;;5068464;28;20464;-71
2022/07/10 08:54:55;;;;;;;22.80;2.50;;;47.40;1.00;;;;;;5076128;28;20477;-70
2022/07/10 08:57:24;;;;;;;23.30;2.60;;;47.70;1.00;;;;;;5072814;28;20499;-70
2022/07/10 08:59:51;;;;;;;22.03;1.90;;;46.30;1.00;;;;;;5069109;28;20465;-71
2022/07/10 09:02:18;;;;;;;22.37;1.90;;;43.90;1.00;;;;;;5073726;28;20473;-71
2022/07/10 09:04:45;;;;;;;25.03;2.10;;;41.20;1.00;;;;;;5072786;28;20481;-70
2022/07/10 09:07:12;;;;;;;26.00;2.50;;;39.00;1.00;;;;;;5063176;28;20504;-70
2022/07/10 09:09:53;;;;;;;24.67;2.30;;;37.00;1.00;;;;;;5062165;28;20454;-70
2022/07/10 09:12:21;;;;;;;25.70;2.30;;;36.40;1.00;;;;;;5062247;28;20926;-70
2022/07/10 09:14:49;;;;;;;24.80;2.40;;;36.70;1.00;;;;;;5056695;28;21048;-71
2022/07/10 09:17:16;;;;;;;23.87;2.20;;;38.70;1.00;;;;;;5059804;28;20987;-70
2022/07/10 09:19:44;;;;;;;24.87;2.53;;;37.50;1.00;;;;;;5062228;28;20457;-70
2022/07/10 09:22:12;;;;;;;25.80;3.00;;;35.80;1.00;;;;;;5063937;28;20526;-71
2022/07/10 09:24:41;;;;;;;25.30;2.60;;;34.20;1.00;;;;;;5068932;28;20536;-70
2022/07/10 09:27:09;;;;;;;24.23;2.20;;;35.70;1.00;;;;;;5066317;28;20465;-72
2022/07/10 09:29:46;;;;;;;24.40;2.50;;;39.10;1.00;;;;;;5068011;28;20473;-70
2022/07/10 09:32:16;;;;;;;25.17;2.63;;;40.10;1.00;;;;;;5067199;28;20476;-70
2022/07/10 09:38:04;;;;;;;24.57;2.60;;;38.30;1.00;;;;;;5064033;28;20426;-70
2022/07/10 09:40:31;;;;;;;24.50;2.70;;;37.40;1.00;;;;;;5064223;28;20464;-70
2022/07/10 09:43:00;;;;;;;25.57;2.57;;;36.70;1.00;;;;;;5069783;28;20453;-70
2022/07/10 09:45:27;;;;;;;26.47;2.77;;;35.50;1.00;;;;;;5068659;28;20497;-70
2022/07/10 09:48:03;;;;;;;26.17;2.67;;;33.80;1.00;;;;;;5067115;28;20534;-71
2022/07/10 09:50:33;;;;;;;27.17;4.00;;;32.30;1.00;;;;;;5067835;28;20685;-71
2022/07/10 09:53:01;;;;;;;28.00;3.07;;;31.20;1.00;;;;;;5068629;28;20565;-70
2022/07/10 09:55:29;;;;;;;26.30;3.20;;;30.20;1.00;;;;;;5057035;28;20522;-70
2022/07/10 09:57:57;;;;;;;26.90;3.80;;;29.40;1.00;;;;;;5064840;28;20767;-70
2022/07/10 10:00:28;;;;;;;29.87;3.33;;;29.00;1.00;;;;;;5064006;28;20810;-71
2022/07/10 10:02:57;;;;;;;29.63;3.40;;;28.90;1.00;;;;;;5055754;28;20453;-70
2022/07/10 10:05:36;;;;;;;27.60;3.40;;;28.70;1.00;;;;;;5063573;28;20481;-70
2022/07/10 10:08:10;;;;;;;27.87;3.50;;;28.50;1.00;;;;;;5065310;28;20468;-71
2022/07/10 10:10:38;;;;;;;26.50;2.87;;;28.20;1.40;;;;;;5068480;28;20506;-70
2022/07/10 10:13:08;;;;;;;27.57;3.37;;;28.10;1.90;;;;;;5067215;28;20461;-70
2022/07/10 10:15:36;;;;;;;27.20;2.93;;;28.00;1.00;;;;;;5057596;28;20471;-70
2022/07/10 10:18:04;;;;;;;27.10;3.20;;;27.90;1.00;;;;;;5068892;28;20468;-70
2022/07/10 10:20:41;;;;;;;27.27;3.20;;;27.80;1.30;;;;;;5065590;28;20465;-70
2022/07/10 10:23:10;;;;;;;29.07;3.17;;;27.90;1.00;;;;;;5068477;28;20551;-70
2022/07/10 10:25:39;;;;;;;27.00;3.57;;;27.80;1.30;;;;;;5080600;28;20491;-70
2022/07/10 10:28:08;;;;;;;27.90;3.07;;;27.80;1.70;;;;;;5049621;28;20462;-71
2022/07/10 10:30:38;;;;;;;27.50;3.17;;;27.60;1.40;;;;;;5057656;28;20540;-70
2022/07/10 10:33:45;;;;;;;26.77;3.00;;;27.60;1.60;;;;;;5068324;28;20806;-70
2022/07/10 10:36:14;;;;;;;27.20;3.10;;;27.60;2.60;;;;;;5080229;28;21023;-70
2022/07/10 10:39:12;;;;;;;28.70;2.60;;;27.40;2.00;;;;;;5050777;28;20469;-70
2022/07/10 10:41:41;;;;;;;27.70;3.90;;;27.10;1.60;;;;;;5018205;28;20457;-70
2022/07/10 10:44:21;;;;;;;27.63;2.77;;;27.00;1.30;;;;;;5067143;28;20473;-70
2022/07/10 10:47:00;;;;;;;28.93;2.50;;;27.10;1.00;;;;;;5067912;28;20754;-70
2022/07/10 10:49:47;;;;;;;28.10;3.53;;;27.00;1.30;;;;;;5047839;28;20609;-70
2022/07/10 10:52:16;;;;;;;28.20;3.53;;;26.90;1.90;;;;;;5065246;28;20453;-71
2022/07/10 10:55:14;;;;;;;29.17;2.90;;;26.80;1.60;;;;;;5080750;28;20504;-71
2022/07/10 10:57:51;;;;;;;27.43;2.70;;;26.70;1.30;;;;;;5058054;28;20456;-70
2022/07/10 11:00:37;;;;;;;27.83;2.70;;;26.70;1.10;;;;;;5071038;28;20475;-70
2022/07/10 11:03:21;;;;;;;28.47;3.10;;;26.60;1.00;;;;;;5075111;28;20991;-70
2022/07/10 11:05:50;;;;;;;27.63;3.20;;;26.40;1.90;;;;;;5063700;28;21000;-70
2022/07/10 11:08:39;;;;;;;27.43;2.80;;;26.20;2.20;;;;;;5068116;28;20469;-70
2022/07/10 11:11:42;;;;;;;27.90;3.33;;;26.10;1.60;;;;;;5068027;28;20458;-71
2022/07/10 11:14:10;;;;;;;26.90;3.10;;;26.10;3.10;;;;;;5065592;28;20480;-71
2022/07/10 11:16:46;;;;;;;29.33;3.10;;;26.20;2.10;;;;;;5066362;28;20642;-71
2022/07/10 11:19:13;;;;;;;27.60;3.10;;;26.30;2.40;;;;;;5071582;28;20670;-71
2022/07/10 11:21:48;;;;;;;28.20;3.50;;;26.20;2.30;;;;;;5062621;28;20538;-71
2022/07/10 11:24:39;;;;;;;26.93;3.30;;;26.20;3.30;;;;;;5067757;28;20481;-71
2022/07/10 11:27:17;;;;;;;28.00;3.50;;;26.10;3.00;;;;;;5065158;28;20442;-71
2022/07/10 11:29:47;;;;;;;27.40;3.13;;;25.90;3.60;;;;;;5066399;28;20457;-71
2022/07/10 11:32:17;;;;;;;28.27;3.77;;;25.80;2.30;;;;;;5065168;28;20608;-71
2022/07/10 11:34:44;;;;;;;28.20;3.00;;;25.80;3.50;;;;;;5069939;28;20486;-71
2022/07/10 11:37:15;;;;;;;27.67;3.27;;;25.70;2.40;;;;;;5059862;28;20469;-71
2022/07/10 11:39:44;;;;;;;27.57;3.00;;;25.70;2.30;;;;;;5067027;28;20556;-71
2022/07/10 11:42:11;;;;;;;28.00;3.20;;;25.50;2.20;;;;;;5071632;28;20453;-70
2022/07/10 11:44:38;;;;;;;27.30;3.10;;;25.40;3.10;;;;;;5069960;28;20542;-70
2022/07/10 11:47:07;;;;;;;27.80;3.03;;;25.40;4.10;;;;;;5071828;28;20467;-70
2022/07/10 11:49:34;;;;;;;28.07;3.30;;;25.40;4.00;;;;;;5070707;28;20471;-70
2022/07/10 11:52:03;;;;;;;29.00;3.60;;;25.40;3.40;;;;;;5072005;28;20465;-70
2022/07/10 11:54:30;;;;;;;27.20;3.50;;;25.40;3.60;;;;;;5068600;28;20515;-70
2022/07/10 11:57:08;;;;;;;27.37;2.90;;;25.20;3.60;;;;;;5071303;28;20457;-70
2022/07/10 11:59:34;;;;;;;28.23;2.80;;;25.10;4.20;;;;;;5062758;28;20453;-71
2022/07/10 12:02:01;;;;;;;28.20;3.00;;;25.10;3.80;;;;;;5069649;28;20476;-70
2022/07/10 12:04:32;;;;;;;27.80;3.17;;;24.90;3.70;;;;;;5070622;28;20485;-71
2022/07/10 12:06:59;;;;;;;28.93;3.97;;;25.00;4.00;;;;;;5083429;28;20759;-71
2022/07/10 12:09:26;;;;;;;27.47;3.17;;;25.00;4.70;;;;;;5068219;28;20465;-71
2022/07/10 12:12:02;;;;;;;27.67;3.40;;;25.10;5.10;;;;;;5070752;28;20885;-71
2022/07/10 12:14:29;;;;;;;29.10;4.13;;;25.10;4.90;;;;;;5068989;28;20563;-70
2022/07/10 12:16:57;;;;;;;30.13;3.50;;;25.00;4.30;;;;;;5070648;28;20454;-71
2022/07/10 12:19:27;;;;;;;30.07;3.20;;;24.90;4.30;;;;;;5070595;28;20948;-70
2022/07/10 12:21:55;;;;;;;27.17;3.00;;;24.90;4.40;;;;;;5071132;28;20457;-70
2022/07/10 12:24:23;;;;;;;29.17;2.97;;;24.90;5.20;;;;;;5071149;28;21000;-71
2022/07/10 12:26:52;;;;;;;26.97;2.70;;;24.90;4.30;;;;;;5068133;28;21155;-71
2022/07/10 12:29:24;;;;;;;28.20;3.10;;;25.00;4.80;;;;;;5070503;28;20492;-71
2022/07/10 12:31:54;;;;;;;29.17;2.83;;;25.10;4.90;;;;;;5070245;28;20473;-71
2022/07/10 12:34:33;;;;;;;29.87;3.13;;;25.10;3.50;;;;;;5069568;28;20588;-71
2022/07/10 12:37:07;;;;;;;27.20;2.97;;;25.10;3.30;;;;;;5069107;28;20979;-70
2022/07/10 12:39:38;;;;;;;29.90;3.17;;;24.90;4.10;;;;;;5070613;28;20467;-70
2022/07/10 12:42:06;;;;;;;27.33;2.80;;;24.80;3.40;;;;;;5070525;28;20498;-71
2022/07/10 12:44:39;;;;;;;27.43;2.60;;;24.70;3.70;;;;;;5069220;28;20507;-71
2022/07/10 12:47:11;;;;;;;27.23;3.00;;;24.70;4.80;;;;;;5070670;28;20490;-71
2022/07/10 12:49:55;;;;;;;29.53;3.37;;;24.60;4.60;;;;;;5070905;28;20466;-71
2022/07/10 12:52:23;;;;;;;27.43;3.10;;;24.50;4.60;;;;;;5068723;28;20460;-71
2022/07/10 12:55:05;;;;;;;28.00;2.90;;;24.50;4.30;;;;;;5069930;28;20473;-70
2022/07/10 12:57:32;;;;;;;27.90;3.23;;;24.50;4.90;;;;;;5067767;28;20461;-71
2022/07/10 13:00:06;;;;;;;27.80;2.60;;;24.50;5.00;;;;;;5069922;28;20461;-70
2022/07/10 13:02:33;;;;;;;28.47;3.17;;;24.40;3.90;;;;;;5067148;28;20504;-70